Eads, CO

11:17 PM MST on January 31, 2015 (GMT -0700)
Limon Municipal | Change Station
CLOSE
Current Station
Airport
Location: Limon,
Elevation: 5364 ft
Nearby Weather Stations

Elev 5364 ft 39.27 °N, 103.67 °W | Updated 14 minutes ago

Overcast
Overcast
29 °F
Feels Like 17 °F
N
16
Wind Variable Wind from North

Today
High -- | Low -- °F
--% Chance of Precip.
Yesterday
High -- | Low -- °F
Precip. -- in
6:56 AM 5:11 PM
Waxing Gibbous, 93% visible
Pressure 29.90 in
Visibility 5.0 miles
Clouds Scattered Clouds 800 ft
Mostly Cloudy 3000 ft
Overcast 7000 ft
Windchill 17 °F
Dew Point 27 °F
Humidity 92%
Rainfall 0.00 in
Snow Depth Not available.
UV 0 out of 12
Pollen .70 out of 12
Air Quality Not available.
Flu Activity Not available.
SPECI KLIC 010603Z AUTO 35014KT 5SM -SN BR SCT008 BKN030 OVC070 M02/M03 A2990 RMK AO2 P0000 T10171028

More Conditions Fewer Conditions

Pressure 29.90 in
Visibility 5.0 miles
Clouds Scattered Clouds 800 ft
Mostly Cloudy 3000 ft
Overcast 7000 ft
Windchill 17 °F
Dew Point 27 °F
Humidity 92%
Rainfall 0.00 in
Snow Depth Not available.
UV 0 out of 12
Pollen .70 out of 12
Air Quality Not available.
Flu Activity Not available.
SPECI KLIC 010603Z AUTO 35014KT 5SM -SN BR SCT008 BKN030 OVC070 M02/M03 A2990 RMK AO2 P0000 T10171028

More Conditions Fewer Conditions

10-Day Weather Forecast

Almanac

Astronomy

Jan. 31, 2015 Rise Set
Actual Time
Civil Twilight
Nautical Twilight
Astronomical Twilight
Moon
Length of Visible Light
Length of Day
Tomorrow will be .
, % of the Moon is Illuminated

Today's Extremes

State Highs State Lows

Community

WunderPhotos

Upload Photos

1,792,322 photos uploaded!

WunderBlogs® & News

Nearby

Air Quality

  Air Quality AQ Index Pollutant
Not available.

Snow Depth

Station Depth Elevation

Earthquake Activity

City Distance Mag. Time & Date
Minimum magnitude displayed is 2.5.

Coastal Water Temperatures

Place Temperature

Nearby Weather Stations